Time;durP1;ratioP1;P1;durP2;ratioP2;P2;SDS_P1;SDS_P2;PMS_P1;PMS_P2;Temp;Humidity;BMP_temperature;BMP_pressure;BME280_temperature;BME280_humidity;BME280_pressure;Samples;Min_cycle;Max_cycle;Signal;HPM_P1;HPM_P2
2021/01/14 00:01:54;;;;;;;9.32;3.22;;;3.00;99.90;;;;;;4179190;28;20048;-79
2021/01/14 00:03:54;;;;;;;10.50;4.32;;;3.00;99.90;;;;;;4179844;28;20139;-79
2021/01/14 00:05:55;;;;;;;14.02;5.80;;;3.10;99.90;;;;;;4179652;28;20406;-78
2021/01/14 00:07:55;;;;;;;14.70;4.68;;;3.10;99.90;;;;;;4179698;28;20084;-79
2021/01/14 00:09:56;;;;;;;10.50;3.78;;;3.10;99.90;;;;;;4160502;28;20033;-79
2021/01/14 00:11:57;;;;;;;14.13;3.90;;;3.00;99.90;;;;;;4179607;28;20033;-79
2021/01/14 00:13:58;;;;;;;10.50;4.50;;;3.00;99.90;;;;;;4179639;28;20036;-79
2021/01/14 00:15:58;;;;;;;9.07;3.50;;;3.00;99.90;;;;;;4160671;28;20026;-79
2021/01/14 00:17:59;;;;;;;11.75;3.35;;;2.90;99.90;;;;;;4160128;28;20036;-79
2021/01/14 00:20:00;;;;;;;7.68;3.17;;;2.80;99.90;;;;;;4178121;28;20036;-79
2021/01/14 00:22:00;;;;;;;10.00;3.50;;;2.80;99.90;;;;;;4178112;28;20032;-79
2021/01/14 00:24:01;;;;;;;8.70;3.47;;;2.70;99.90;;;;;;4180972;28;20387;-78
2021/01/14 00:26:02;;;;;;;12.77;3.72;;;2.70;99.90;;;;;;4163849;28;20045;-78
2021/01/14 00:28:02;;;;;;;8.50;2.92;;;2.60;99.90;;;;;;4181524;28;20037;-78
2021/01/14 00:30:11;;;;;;;7.18;3.17;;;2.60;99.90;;;;;;4164152;28;20528;-79
2021/01/14 00:32:11;;;;;;;7.47;3.28;;;2.60;99.90;;;;;;4165065;28;20037;-79
2021/01/14 00:34:12;;;;;;;5.00;3.08;;;2.60;99.90;;;;;;4182869;28;20021;-79
2021/01/14 00:36:12;;;;;;;12.32;3.90;;;2.50;99.90;;;;;;4164864;28;20045;-78
2021/01/14 00:38:13;;;;;;;8.35;3.60;;;2.50;99.90;;;;;;4182638;28;20025;-79
2021/01/14 00:40:15;;;;;;;10.73;3.38;;;2.50;99.90;;;;;;4164890;28;20420;-79
2021/01/14 00:42:17;;;;;;;11.18;3.58;;;2.40;99.90;;;;;;4182431;28;20108;-79
2021/01/14 00:44:18;;;;;;;6.03;3.30;;;2.40;99.90;;;;;;4179925;28;20021;-79
2021/01/14 00:46:20;;;;;;;10.32;3.88;;;2.30;99.90;;;;;;4176987;28;20021;-79
2021/01/14 00:48:20;;;;;;;11.60;3.60;;;2.20;99.90;;;;;;4182106;28;20017;-80
2021/01/14 00:50:21;;;;;;;10.40;3.20;;;2.20;99.90;;;;;;4180735;28;20033;-79
2021/01/14 00:52:22;;;;;;;8.85;3.75;;;2.10;99.90;;;;;;4180737;28;20381;-80
2021/01/14 00:54:24;;;;;;;7.13;3.75;;;2.00;99.90;;;;;;4180949;28;20036;-80
2021/01/14 00:56:35;;;;;;;7.83;3.17;;;2.00;99.90;;;;;;4162965;28;20109;-79
2021/01/14 00:58:35;;;;;;;10.25;4.40;;;1.90;99.90;;;;;;4180917;28;20036;-80
2021/01/14 01:00:36;;;;;;;10.20;3.03;;;1.90;99.90;;;;;;4163059;28;20418;-80
2021/01/14 01:02:40;;;;;;;11.38;3.58;;;1.80;99.90;;;;;;4180566;28;20033;-80
2021/01/14 01:04:41;;;;;;;11.52;3.63;;;1.80;99.90;;;;;;4180862;28;20025;-80
2021/01/14 01:06:42;;;;;;;9.95;2.92;;;1.70;99.90;;;;;;4156396;28;20050;-80
2021/01/14 01:08:42;;;;;;;11.02;3.15;;;1.70;99.90;;;;;;4155655;28;20033;-79
2021/01/14 01:10:43;;;;;;;6.63;3.33;;;1.70;99.90;;;;;;4180699;28;20476;-79
2021/01/14 01:12:44;;;;;;;7.18;3.15;;;1.70;99.90;;;;;;4179795;28;20481;-80
2021/01/14 01:14:44;;;;;;;5.20;3.17;;;1.70;99.90;;;;;;4162096;28;20029;-80
2021/01/14 01:16:45;;;;;;;9.88;3.63;;;1.70;99.90;;;;;;4179424;28;20110;-80
2021/01/14 01:18:46;;;;;;;16.13;3.22;;;1.60;99.90;;;;;;4180752;28;20033;-79
2021/01/14 01:20:47;;;;;;;8.23;3.15;;;1.60;99.90;;;;;;4162989;28;20038;-79
2021/01/14 01:22:47;;;;;;;13.93;3.47;;;1.60;99.90;;;;;;4163007;28;20116;-79
2021/01/14 01:24:48;;;;;;;13.90;3.38;;;1.60;99.90;;;;;;4162638;28;20029;-79
2021/01/14 01:26:52;;;;;;;9.02;3.28;;;1.60;99.90;;;;;;4181001;28;20106;-79
2021/01/14 01:28:53;;;;;;;9.88;3.35;;;1.60;99.90;;;;;;4163785;28;20030;-79
2021/01/14 01:30:53;;;;;;;8.68;2.72;;;1.60;99.90;;;;;;4164150;28;20042;-79
2021/01/14 01:32:54;;;;;;;6.30;2.67;;;1.60;99.90;;;;;;4181686;28;20095;-79
2021/01/14 01:34:55;;;;;;;9.07;3.05;;;1.60;99.90;;;;;;4180509;28;20532;-79
2021/01/14 01:36:55;;;;;;;9.55;2.92;;;1.60;99.90;;;;;;4181969;28;20029;-80
2021/01/14 01:38:56;;;;;;;10.98;3.50;;;1.60;99.90;;;;;;4181815;28;20546;-80
2021/01/14 01:40:58;;;;;;;13.07;3.45;;;1.60;99.90;;;;;;4164074;28;20092;-79
2021/01/14 01:43:00;;;;;;;13.02;4.18;;;1.70;99.90;;;;;;4181493;28;20451;-79
2021/01/14 01:45:00;;;;;;;9.93;3.88;;;1.70;99.90;;;;;;4181673;28;20033;-79
2021/01/14 01:47:07;;;;;;;10.20;3.05;;;1.70;99.90;;;;;;4163361;28;20067;-79
2021/01/14 01:49:08;;;;;;;9.80;3.13;;;1.70;99.90;;;;;;4163734;28;20029;-79
2021/01/14 01:51:09;;;;;;;11.48;3.75;;;1.70;99.90;;;;;;4179707;28;20075;-78
2021/01/14 01:53:11;;;;;;;11.27;2.78;;;1.80;99.90;;;;;;4181533;28;20132;-79
2021/01/14 01:55:12;;;;;;;6.82;3.30;;;1.80;99.90;;;;;;4181318;28;20029;-78
2021/01/14 01:57:13;;;;;;;6.25;2.88;;;1.80;99.90;;;;;;4181461;28;20523;-78
2021/01/14 01:59:17;;;;;;;10.10;3.60;;;1.80;99.90;;;;;;4181050;28;20108;-79
2021/01/14 02:01:18;;;;;;;6.85;3.72;;;1.80;99.90;;;;;;4181456;28;20029;-78
2021/01/14 02:03:18;;;;;;;8.50;2.88;;;1.80;99.90;;;;;;4163372;28;20143;-78
2021/01/14 02:05:19;;;;;;;8.95;2.92;;;1.80;99.90;;;;;;4181191;28;20053;-80
2021/01/14 02:07:38;;;;;;;7.75;3.55;;;1.80;99.90;;;;;;4181387;28;20472;-79
2021/01/14 02:09:42;;;;;;;6.50;3.10;;;1.90;99.90;;;;;;4163717;28;20044;-79
2021/01/14 02:11:50;;;;;;;9.18;3.15;;;1.80;99.90;;;;;;4181349;28;20104;-78
2021/01/14 02:14:19;;;;;;;6.97;3.20;;;1.90;99.90;;;;;;4180949;28;20167;-79
2021/01/14 02:16:21;;;;;;;10.57;4.25;;;1.90;99.90;;;;;;4180849;28;20357;-78
2021/01/14 02:18:22;;;;;;;5.25;2.80;;;1.90;99.90;;;;;;4181114;28;20029;-78
2021/01/14 02:20:23;;;;;;;8.88;3.53;;;1.90;99.90;;;;;;4181125;28;20064;-78
2021/01/14 02:22:37;;;;;;;6.28;3.17;;;1.90;99.90;;;;;;4163334;28;20108;-79
2021/01/14 02:24:43;;;;;;;10.38;3.30;;;1.90;99.90;;;;;;4181073;28;20060;-79
2021/01/14 02:26:46;;;;;;;11.10;3.25;;;1.90;99.90;;;;;;4181175;28;20032;-79
2021/01/14 02:28:47;;;;;;;13.48;3.63;;;1.90;99.90;;;;;;4163103;28;20029;-79
2021/01/14 02:30:48;;;;;;;8.73;3.40;;;1.90;99.90;;;;;;4177934;28;20033;-79
2021/01/14 02:32:48;;;;;;;10.75;3.53;;;1.80;99.90;;;;;;4164198;28;20040;-79
2021/01/14 02:34:50;;;;;;;15.88;3.85;;;1.80;99.90;;;;;;4163195;28;20029;-80
2021/01/14 02:36:51;;;;;;;12.82;4.30;;;1.80;99.90;;;;;;4163007;28;20029;-80
2021/01/14 02:38:52;;;;;;;6.88;3.10;;;1.80;99.90;;;;;;4180853;28;20044;-80
2021/01/14 02:40:53;;;;;;;9.25;3.53;;;1.80;99.90;;;;;;4180539;28;20090;-79
2021/01/14 02:42:53;;;;;;;10.18;3.90;;;1.80;99.90;;;;;;4180655;28;20443;-80
2021/01/14 02:44:54;;;;;;;9.07;3.03;;;1.80;99.90;;;;;;4177496;28;20056;-79
2021/01/14 02:46:57;;;;;;;9.38;3.33;;;1.80;99.90;;;;;;4162359;28;20042;-79
2021/01/14 02:49:09;;;;;;;6.88;3.35;;;1.80;99.90;;;;;;4180466;28;20021;-79
2021/01/14 02:51:30;;;;;;;11.18;4.22;;;1.70;99.90;;;;;;4179951;28;20044;-79
2021/01/14 02:53:33;;;;;;;17.75;3.88;;;1.70;99.90;;;;;;4180036;28;20499;-80
2021/01/14 02:55:35;;;;;;;11.80;3.10;;;1.70;99.90;;;;;;4153190;28;20044;-79
2021/01/14 02:57:38;;;;;;;11.55;4.25;;;1.70;99.90;;;;;;4174800;28;20635;-80
2021/01/14 02:59:39;;;;;;;8.55;3.47;;;1.60;99.90;;;;;;4162684;28;20084;-80
2021/01/14 03:01:40;;;;;;;13.75;3.25;;;1.70;99.90;;;;;;4180572;28;20067;-80
2021/01/14 03:03:40;;;;;;;11.27;3.25;;;1.70;99.90;;;;;;4162787;28;20033;-80
2021/01/14 03:05:41;;;;;;;7.15;3.00;;;1.70;99.90;;;;;;4162653;28;20029;-79
2021/01/14 03:07:42;;;;;;;9.63;3.53;;;1.60;99.90;;;;;;4180717;28;20472;-80
2021/01/14 03:09:42;;;;;;;6.63;3.30;;;1.60;99.90;;;;;;4162667;28;20033;-80
2021/01/14 03:11:43;;;;;;;7.10;3.35;;;1.60;99.90;;;;;;4162397;28;20088;-80
2021/01/14 03:13:43;;;;;;;7.72;3.28;;;1.50;99.90;;;;;;4180339;28;20049;-80
2021/01/14 03:15:44;;;;;;;7.80;2.47;;;1.50;99.90;;;;;;4180270;28;20391;-80
2021/01/14 03:17:45;;;;;;;8.48;3.08;;;1.40;99.90;;;;;;4179775;28;20083;-80
2021/01/14 03:19:45;;;;;;;8.77;3.03;;;1.30;99.90;;;;;;4180244;28;20036;-80
2021/01/14 03:21:46;;;;;;;5.43;3.00;;;1.20;99.90;;;;;;4180291;28;20025;-80
2021/01/14 03:23:47;;;;;;;8.02;3.47;;;1.10;99.90;;;;;;4179998;28;20033;-79
2021/01/14 03:25:47;;;;;;;10.75;4.80;;;1.10;99.90;;;;;;4180176;28;20063;-79
2021/01/14 03:27:48;;;;;;;10.65;3.65;;;1.10;99.90;;;;;;4180284;28;20388;-78
2021/01/14 03:29:50;;;;;;;12.13;3.60;;;1.00;99.90;;;;;;4180044;28;20766;-79
2021/01/14 03:31:51;;;;;;;6.15;3.50;;;1.00;99.90;;;;;;4162387;28;20032;-79
2021/01/14 03:33:51;;;;;;;13.60;3.28;;;1.00;99.90;;;;;;4179495;28;20033;-79
2021/01/14 03:35:52;;;;;;;6.50;3.55;;;1.00;99.90;;;;;;4180053;28;20392;-79
2021/01/14 03:37:53;;;;;;;8.60;3.88;;;1.00;99.90;;;;;;4180043;28;20017;-79
2021/01/14 03:39:54;;;;;;;12.05;3.35;;;1.00;99.90;;;;;;4179974;28;20511;-79
2021/01/14 03:41:56;;;;;;;8.45;3.58;;;1.00;99.90;;;;;;4180007;28;20033;-79
2021/01/14 03:43:57;;;;;;;12.38;3.38;;;0.90;99.90;;;;;;4179896;28;20029;-79
2021/01/14 03:45:58;;;;;;;8.57;3.70;;;0.90;99.90;;;;;;4179603;28;20416;-79
2021/01/14 03:47:59;;;;;;;7.35;3.40;;;0.90;99.90;;;;;;4180163;28;20033;-79
2021/01/14 03:50:00;;;;;;;14.75;3.20;;;0.90;99.90;;;;;;4162164;28;20026;-79
2021/01/14 03:52:01;;;;;;;9.68;3.38;;;0.80;99.90;;;;;;4179740;28;20024;-79
2021/01/14 03:54:01;;;;;;;6.57;3.47;;;0.70;99.90;;;;;;4179179;28;20496;-79
2021/01/14 03:56:02;;;;;;;14.10;4.10;;;0.60;99.90;;;;;;4179642;28;20045;-78
2021/01/14 03:58:03;;;;;;;11.25;3.05;;;0.50;99.90;;;;;;4178761;28;20033;-79
2021/01/14 04:00:05;;;;;;;7.65;3.33;;;0.50;99.90;;;;;;4179115;28;20037;-79
2021/01/14 04:02:06;;;;;;;17.40;6.05;;;0.40;99.90;;;;;;4178187;28;20056;-78
2021/01/14 04:04:07;;;;;;;10.32;3.13;;;0.30;99.90;;;;;;4179511;28;20092;-78
2021/01/14 04:06:08;;;;;;;7.90;3.03;;;0.30;99.90;;;;;;4178555;28;20598;-79
2021/01/14 04:08:09;;;;;;;14.40;4.40;;;0.30;99.90;;;;;;4178507;28;20037;-79
2021/01/14 04:10:10;;;;;;;6.70;2.90;;;0.30;99.90;;;;;;4161617;28;20087;-79
2021/01/14 04:12:11;;;;;;;8.20;3.55;;;0.30;99.90;;;;;;4177958;28;20116;-79
2021/01/14 04:14:11;;;;;;;14.55;4.60;;;0.40;99.90;;;;;;4178142;28;20062;-79
2021/01/14 04:16:12;;;;;;;10.20;3.60;;;0.40;99.90;;;;;;4178118;28;20488;-80
2021/01/14 04:18:13;;;;;;;9.07;3.42;;;0.40;99.90;;;;;;4177863;28;20033;-79
2021/01/14 04:20:14;;;;;;;15.25;3.53;;;0.30;99.90;;;;;;4178436;28;20056;-79
2021/01/14 04:22:15;;;;;;;12.82;3.80;;;0.40;99.90;;;;;;4179790;28;20035;-79
2021/01/14 04:24:15;;;;;;;11.45;3.92;;;0.40;99.90;;;;;;4179683;28;20071;-79
2021/01/14 04:26:16;;;;;;;14.80;5.78;;;0.40;99.90;;;;;;4179364;28;20036;-79
2021/01/14 04:28:17;;;;;;;10.48;3.75;;;0.40;99.90;;;;;;4179344;28;20029;-79
2021/01/14 04:30:18;;;;;;;12.13;4.28;;;0.40;99.90;;;;;;4179354;28;20033;-79
2021/01/14 04:32:21;;;;;;;10.02;4.03;;;0.50;99.90;;;;;;4172355;28;20030;-79
2021/01/14 04:34:22;;;;;;;12.20;3.67;;;0.50;99.90;;;;;;4179808;28;20716;-79
2021/01/14 04:36:23;;;;;;;8.60;4.47;;;0.50;99.90;;;;;;4179197;28;20025;-80
2021/01/14 04:38:25;;;;;;;9.52;3.95;;;0.50;99.90;;;;;;4177734;28;20022;-79
2021/01/14 04:40:26;;;;;;;5.57;3.25;;;0.40;99.90;;;;;;4177803;28;20106;-80
2021/01/14 04:42:29;;;;;;;8.43;3.35;;;0.40;99.90;;;;;;4177966;28;20397;-79
2021/01/14 04:44:29;;;;;;;9.98;3.33;;;0.40;99.90;;;;;;4177830;28;20032;-79
2021/01/14 04:46:32;;;;;;;9.57;4.05;;;0.30;99.90;;;;;;4178774;28;20112;-79
2021/01/14 04:48:47;;;;;;;9.52;4.05;;;0.30;99.90;;;;;;4153730;28;20038;-80
2021/01/14 04:50:49;;;;;;;13.57;3.78;;;0.30;99.90;;;;;;4175226;28;20064;-79
2021/01/14 04:52:51;;;;;;;9.32;4.38;;;0.20;99.90;;;;;;4177571;28;20619;-79
2021/01/14 04:54:53;;;;;;;14.98;4.10;;;0.20;99.90;;;;;;4178716;28;20527;-80
2021/01/14 04:56:55;;;;;;;11.57;4.35;;;0.10;99.90;;;;;;4178167;28;20400;-80
2021/01/14 04:59:02;;;;;;;18.45;4.28;;;0.10;99.90;;;;;;4177402;28;20031;-79
2021/01/14 05:01:27;;;;;;;11.18;5.47;;;0.10;99.90;;;;;;4159547;28;20033;-79
2021/01/14 05:03:30;;;;;;;11.55;4.85;;;0.10;99.90;;;;;;4157797;28;20033;-77
2021/01/14 05:05:32;;;;;;;12.73;4.45;;;0.10;99.90;;;;;;4177659;28;20116;-79
2021/01/14 05:07:33;;;;;;;15.23;4.63;;;0.10;99.90;;;;;;4177671;28;20033;-79
2021/01/14 05:09:38;;;;;;;10.75;4.30;;;0.10;99.90;;;;;;4179903;28;20388;-79
2021/01/14 05:11:43;;;;;;;12.32;4.05;;;0.00;99.90;;;;;;4181594;28;20025;-78
2021/01/14 05:13:45;;;;;;;10.18;4.35;;;0.00;99.90;;;;;;4182026;28;20078;-78
2021/01/14 05:15:46;;;;;;;10.18;4.47;;;0.00;99.90;;;;;;4164569;28;20063;-78
2021/01/14 05:17:47;;;;;;;10.98;4.78;;;0.10;99.90;;;;;;4181911;28;20029;-78
2021/01/14 05:19:48;;;;;;;7.30;3.97;;;0.10;99.90;;;;;;4181358;28;20021;-78
2021/01/14 05:21:48;;;;;;;8.02;4.18;;;0.10;99.90;;;;;;4163270;28;20045;-79
2021/01/14 05:23:49;;;;;;;10.13;5.97;;;0.10;99.90;;;;;;4180676;28;20538;-79
2021/01/14 05:25:52;;;;;;;11.00;4.13;;;0.10;99.90;;;;;;4163115;28;20474;-78
2021/01/14 05:27:53;;;;;;;11.43;4.10;;;0.10;99.90;;;;;;4181231;28;20025;-79
2021/01/14 05:30:08;;;;;;;8.90;5.28;;;0.10;99.90;;;;;;4163874;28;20044;-78
2021/01/14 05:32:08;;;;;;;7.20;4.05;;;0.10;99.90;;;;;;4181051;28;20556;-78
2021/01/14 05:34:09;;;;;;;6.45;4.13;;;0.10;99.90;;;;;;4175926;28;20034;-78
2021/01/14 05:36:10;;;;;;;9.48;4.43;;;0.10;99.90;;;;;;4181596;28;20021;-78
2021/01/14 05:38:10;;;;;;;16.33;4.88;;;0.10;99.90;;;;;;4180336;28;20329;-81
2021/01/14 05:40:22;;;;;;;8.48;3.88;;;0.10;99.90;;;;;;4180204;28;20094;-80
2021/01/14 05:42:23;;;;;;;8.75;4.10;;;0.10;99.90;;;;;;4180659;28;20028;-79
2021/01/14 05:44:37;;;;;;;6.60;3.85;;;0.00;99.90;;;;;;4180589;28;20078;-80
2021/01/14 05:46:38;;;;;;;8.57;3.67;;;0.00;99.90;;;;;;4180095;28;20033;-80
2021/01/14 05:48:39;;;;;;;8.90;3.58;;;-0.10;99.90;;;;;;4180241;28;20459;-80
2021/01/14 05:50:47;;;;;;;10.85;3.92;;;-0.10;99.90;;;;;;4179905;28;20068;-79
2021/01/14 05:52:48;;;;;;;10.70;4.07;;;-0.10;99.90;;;;;;4179979;28;20045;-79
2021/01/14 05:55:07;;;;;;;14.40;4.63;;;-0.10;99.90;;;;;;4171231;28;20036;-79
2021/01/14 05:57:13;;;;;;;6.75;3.35;;;-0.10;99.90;;;;;;4180519;28;20440;-79
2021/01/14 05:59:18;;;;;;;11.18;4.15;;;-0.10;99.90;;;;;;4162133;28;20029;-80
2021/01/14 06:01:19;;;;;;;10.35;3.83;;;-0.10;99.90;;;;;;4179671;28;20045;-80
2021/01/14 06:03:32;;;;;;;10.88;4.32;;;-0.10;99.90;;;;;;4180445;28;20549;-80
2021/01/14 06:05:33;;;;;;;11.15;4.00;;;0.00;99.90;;;;;;4181333;28;20399;-80
2021/01/14 06:07:39;;;;;;;8.02;4.43;;;0.00;99.90;;;;;;4181597;28;20111;-80
2021/01/14 06:09:41;;;;;;;12.13;3.63;;;0.00;99.90;;;;;;4181309;28;20378;-79
2021/01/14 06:11:43;;;;;;;11.75;3.80;;;0.00;99.90;;;;;;4180966;28;20594;-79
2021/01/14 06:13:44;;;;;;;8.82;4.05;;;0.00;99.90;;;;;;4181376;28;20037;-79
2021/01/14 06:15:58;;;;;;;10.40;3.70;;;0.00;99.90;;;;;;4181151;28;20033;-79
2021/01/14 06:18:01;;;;;;;8.50;5.38;;;0.10;99.90;;;;;;4181295;28;20029;-80
2021/01/14 06:20:09;;;;;;;7.90;3.95;;;0.10;99.90;;;;;;4180274;28;20108;-79
2021/01/14 06:22:15;;;;;;;17.27;4.05;;;0.10;99.90;;;;;;4161540;28;20071;-79
2021/01/14 06:24:26;;;;;;;9.57;3.65;;;0.10;99.90;;;;;;4180655;28;20025;-79
2021/01/14 06:26:27;;;;;;;16.88;3.85;;;0.10;99.90;;;;;;4181121;28;20068;-77
2021/01/14 06:28:34;;;;;;;11.63;4.13;;;0.10;99.90;;;;;;4163120;28;20088;-78
2021/01/14 06:30:57;;;;;;;9.82;4.25;;;0.10;99.90;;;;;;4179102;28;20047;-78
2021/01/14 06:33:01;;;;;;;13.57;4.72;;;0.10;99.90;;;;;;4160767;28;20040;-77
2021/01/14 06:35:02;;;;;;;8.77;3.63;;;0.10;99.90;;;;;;4170261;28;20033;-78
2021/01/14 06:37:14;;;;;;;7.35;4.75;;;0.10;99.90;;;;;;4165332;28;20057;-77
2021/01/14 06:39:17;;;;;;;20.48;5.03;;;0.10;99.90;;;;;;4171461;28;20055;-78
2021/01/14 06:41:19;;;;;;;18.00;6.47;;;0.20;99.90;;;;;;4180547;28;20107;-79
2021/01/14 06:43:27;;;;;;;7.90;3.47;;;0.20;99.90;;;;;;4164863;28;20129;-79
2021/01/14 06:45:51;;;;;;;7.13;3.83;;;0.20;99.90;;;;;;4165544;28;20453;-78
2021/01/14 06:48:02;;;;;;;11.15;4.25;;;0.20;99.90;;;;;;4163947;28;20029;-79
2021/01/14 06:50:18;;;;;;;11.15;4.80;;;0.20;99.90;;;;;;4147690;28;20029;-79
2021/01/14 06:52:22;;;;;;;6.10;3.70;;;0.20;99.90;;;;;;4175947;28;20025;-79
2021/01/14 06:54:25;;;;;;;10.75;4.20;;;0.20;99.90;;;;;;4141369;28;20032;-79
2021/01/14 06:56:34;;;;;;;14.60;4.47;;;0.20;99.90;;;;;;4131058;28;20061;-78
2021/01/14 06:58:38;;;;;;;11.68;4.20;;;0.20;99.90;;;;;;4134727;28;20026;-79
2021/01/14 07:00:45;;;;;;;10.05;4.32;;;0.20;99.90;;;;;;4140415;28;20071;-79
2021/01/14 07:02:53;;;;;;;17.00;4.75;;;0.30;99.90;;;;;;4134462;28;20033;-79
2021/01/14 07:05:02;;;;;;;12.68;3.95;;;0.30;99.90;;;;;;4131552;28;20027;-79
2021/01/14 07:07:28;;;;;;;10.75;4.28;;;0.30;99.90;;;;;;4132561;28;20026;-78
2021/01/14 07:09:37;;;;;;;11.88;4.63;;;0.30;99.90;;;;;;4139657;28;20036;-79
2021/01/14 07:11:43;;;;;;;12.18;4.65;;;0.40;99.90;;;;;;4146122;28;20481;-79
2021/01/14 07:13:52;;;;;;;14.32;4.95;;;0.50;99.90;;;;;;4145463;28;20107;-79
2021/01/14 07:15:57;;;;;;;10.90;4.43;;;0.50;99.90;;;;;;4146479;28;20033;-79
2021/01/14 07:18:03;;;;;;;14.55;5.40;;;0.50;99.90;;;;;;4145272;28;20036;-80
2021/01/14 07:20:08;;;;;;;9.90;4.47;;;0.40;99.90;;;;;;4145478;28;20041;-79
2021/01/14 07:22:12;;;;;;;13.65;6.80;;;0.40;99.90;;;;;;4130774;28;20077;-79
2021/01/14 07:24:21;;;;;;;8.48;4.30;;;0.40;99.90;;;;;;4142779;28;20117;-79
2021/01/14 07:26:23;;;;;;;8.00;4.32;;;0.40;99.90;;;;;;4147525;28;20045;-79
2021/01/14 07:28:24;;;;;;;15.80;4.43;;;0.40;99.90;;;;;;4136087;28;20026;-79
2021/01/14 07:30:25;;;;;;;10.65;4.03;;;0.40;99.90;;;;;;4133093;28;20093;-79
2021/01/14 07:32:57;;;;;;;13.30;4.22;;;0.40;99.90;;;;;;4146305;28;20741;-79
2021/01/14 07:34:58;;;;;;;8.10;3.42;;;0.40;99.90;;;;;;4137039;28;20049;-79
2021/01/14 07:36:59;;;;;;;8.70;3.75;;;0.40;99.90;;;;;;4136831;28;20037;-79
2021/01/14 07:38:59;;;;;;;7.78;3.67;;;0.40;99.90;;;;;;4135859;28;20041;-79
2021/01/14 07:41:01;;;;;;;10.82;4.00;;;0.30;99.90;;;;;;4138577;28;20034;-79
2021/01/14 07:43:05;;;;;;;12.40;4.82;;;0.30;99.90;;;;;;4142433;28;20044;-77
2021/01/14 07:45:14;;;;;;;12.80;5.75;;;0.40;99.90;;;;;;4132107;28;20577;-79
2021/01/14 07:47:30;;;;;;;6.72;4.68;;;0.40;99.90;;;;;;4141942;28;20061;-79
2021/01/14 07:49:31;;;;;;;7.55;3.88;;;0.40;99.90;;;;;;4136409;28;20048;-79
2021/01/14 07:51:47;;;;;;;15.02;4.65;;;0.50;99.90;;;;;;4140842;28;20042;-79
2021/01/14 07:54:07;;;;;;;8.82;3.47;;;0.50;99.90;;;;;;4167632;28;20131;-79
2021/01/14 07:56:24;;;;;;;9.65;3.83;;;0.50;99.90;;;;;;4158894;28;20108;-79
2021/01/14 07:58:25;;;;;;;12.85;3.78;;;0.50;99.90;;;;;;4176457;28;20041;-78
2021/01/14 08:00:25;;;;;;;7.28;4.25;;;0.50;99.90;;;;;;4177782;28;20059;-79
2021/01/14 08:02:26;;;;;;;8.15;4.25;;;0.50;99.90;;;;;;4177373;28;20048;-79
2021/01/14 08:04:27;;;;;;;20.00;5.38;;;0.50;99.90;;;;;;4176969;28;20060;-79
2021/01/14 08:06:30;;;;;;;12.52;4.57;;;0.50;99.90;;;;;;4176059;28;20550;-79
2021/01/14 08:08:38;;;;;;;12.32;4.45;;;0.50;99.90;;;;;;4163000;28;20469;-79
2021/01/14 08:10:39;;;;;;;12.85;4.43;;;0.60;99.90;;;;;;4168907;28;20037;-79
2021/01/14 08:12:45;;;;;;;10.10;5.20;;;0.60;99.90;;;;;;4172311;28;20037;-79
2021/01/14 08:14:45;;;;;;;16.38;5.28;;;0.60;99.90;;;;;;4173834;28;20041;-79
2021/01/14 08:16:51;;;;;;;13.27;4.95;;;0.60;99.90;;;;;;4178957;28;20033;-78
2021/01/14 08:19:28;;;;;;;8.00;4.13;;;0.70;99.90;;;;;;4167623;28;20021;-79
2021/01/14 08:21:29;;;;;;;10.35;4.88;;;0.70;99.90;;;;;;4160453;28;20593;-79
2021/01/14 08:23:30;;;;;;;10.80;5.57;;;0.70;99.90;;;;;;4169963;28;20034;-79
2021/01/14 08:25:33;;;;;;;10.25;5.80;;;0.70;99.90;;;;;;4164088;28;20037;-79
2021/01/14 08:27:35;;;;;;;9.85;5.28;;;0.70;99.90;;;;;;4155935;28;20037;-78
2021/01/14 08:30:02;;;;;;;23.23;6.05;;;0.70;99.90;;;;;;4164479;28;20045;-79
2021/01/14 08:32:02;;;;;;;14.40;5.65;;;0.80;99.90;;;;;;4146818;28;20052;-79
2021/01/14 08:34:08;;;;;;;13.98;6.03;;;0.80;99.90;;;;;;4161231;28;20455;-79
2021/01/14 08:36:12;;;;;;;16.35;5.75;;;0.90;99.90;;;;;;4177791;28;20435;-77
2021/01/14 08:38:14;;;;;;;15.43;6.50;;;0.90;99.90;;;;;;4161395;28;20030;-77
2021/01/14 08:40:17;;;;;;;17.13;7.05;;;0.90;99.90;;;;;;4174207;28;20029;-77
2021/01/14 08:42:19;;;;;;;13.75;7.43;;;1.00;99.90;;;;;;4159306;28;20030;-78
2021/01/14 08:44:29;;;;;;;12.02;6.70;;;1.00;99.90;;;;;;4167948;28;20043;-78
2021/01/14 08:46:46;;;;;;;13.77;5.82;;;1.10;99.90;;;;;;4182302;28;20052;-78
2021/01/14 08:48:46;;;;;;;8.50;5.75;;;1.20;99.90;;;;;;4181112;28;20037;-78
2021/01/14 08:51:00;;;;;;;11.93;6.15;;;1.20;99.90;;;;;;4180965;28;20041;-79
2021/01/14 08:53:03;;;;;;;12.57;5.45;;;1.20;99.90;;;;;;4170213;28;20052;-78
2021/01/14 08:55:04;;;;;;;10.55;5.57;;;1.30;99.90;;;;;;4182432;28;20090;-78
2021/01/14 08:57:05;;;;;;;13.45;5.95;;;1.30;99.90;;;;;;4164383;28;20105;-79
2021/01/14 08:59:16;;;;;;;11.95;5.15;;;1.30;99.90;;;;;;4181170;28;20476;-79
2021/01/14 09:01:25;;;;;;;9.75;5.15;;;1.40;99.90;;;;;;4181214;28;20082;-78
2021/01/14 09:03:28;;;;;;;7.88;4.43;;;1.40;99.90;;;;;;4180932;28;20585;-78
2021/01/14 09:05:29;;;;;;;;;;;1.40;99.90;;;;;;4181316;28;20037;-79
2021/01/14 09:07:29;;;;;;;10.60;4.55;;;1.40;99.90;;;;;;4164040;28;19909;-78
2021/01/14 09:09:30;;;;;;;17.33;4.35;;;1.40;99.90;;;;;;4161389;28;20474;-79
2021/01/14 09:11:32;;;;;;;15.27;6.85;;;1.40;99.90;;;;;;4181341;28;20056;-77
2021/01/14 09:13:33;;;;;;;11.07;4.30;;;1.40;99.90;;;;;;4180263;28;20503;-79
2021/01/14 09:15:34;;;;;;;12.25;4.20;;;1.40;99.90;;;;;;4155249;28;20030;-78
2021/01/14 09:17:35;;;;;;;9.68;3.75;;;1.40;99.90;;;;;;4163430;28;20477;-78
2021/01/14 09:19:35;;;;;;;9.82;3.90;;;1.40;99.90;;;;;;4181319;28;20086;-79
2021/01/14 09:21:36;;;;;;;9.88;4.82;;;1.50;99.90;;;;;;4180527;28;20025;-78
2021/01/14 09:23:38;;;;;;;10.07;4.28;;;1.50;99.90;;;;;;4161968;28;20456;-78
2021/01/14 09:25:38;;;;;;;10.25;3.85;;;1.50;99.90;;;;;;4163277;28;20029;-78
2021/01/14 09:27:40;;;;;;;7.50;3.92;;;1.50;99.90;;;;;;4179351;28;20040;-79
2021/01/14 09:29:41;;;;;;;12.75;4.57;;;1.50;99.90;;;;;;4179735;28;20064;-79
2021/01/14 09:31:43;;;;;;;10.80;4.30;;;1.50;99.90;;;;;;4175246;28;20119;-78
2021/01/14 09:33:46;;;;;;;7.90;3.88;;;1.50;99.90;;;;;;4178989;28;20033;-78
2021/01/14 09:35:57;;;;;;;11.13;4.68;;;1.60;99.90;;;;;;4161282;28;20072;-78
2021/01/14 09:37:58;;;;;;;13.68;4.05;;;1.60;99.90;;;;;;4157808;28;20185;-79
2021/01/14 09:40:09;;;;;;;9.63;4.18;;;1.70;99.90;;;;;;4171883;28;20029;-77
2021/01/14 09:42:10;;;;;;;11.65;5.13;;;1.70;99.90;;;;;;4179183;28;20119;-78
2021/01/14 09:44:13;;;;;;;11.82;4.28;;;1.70;99.90;;;;;;4161447;28;20092;-78
2021/01/14 09:46:14;;;;;;;15.13;4.72;;;1.70;99.90;;;;;;4180836;28;20056;-79
2021/01/14 09:48:18;;;;;;;7.85;3.88;;;1.70;99.90;;;;;;4180003;28;20434;-79
2021/01/14 09:50:23;;;;;;;8.65;4.00;;;1.70;99.90;;;;;;4179518;28;20036;-79
2021/01/14 09:52:26;;;;;;;14.35;4.97;;;1.80;99.90;;;;;;4177671;28;20480;-78
2021/01/14 09:54:28;;;;;;;8.30;3.50;;;1.80;99.90;;;;;;4160654;28;20147;-78
2021/01/14 09:56:40;;;;;;;11.27;4.28;;;1.80;99.90;;;;;;4175902;28;20053;-79
2021/01/14 09:58:44;;;;;;;7.50;3.90;;;1.90;99.90;;;;;;4179198;28;20037;-79
2021/01/14 10:00:48;;;;;;;10.30;4.15;;;1.90;99.90;;;;;;4178577;28;20029;-78
2021/01/14 10:02:53;;;;;;;10.93;3.63;;;1.90;99.90;;;;;;4179127;28;20029;-79
2021/01/14 10:04:58;;;;;;;7.55;4.05;;;1.90;99.90;;;;;;4178154;28;20031;-80
2021/01/14 10:07:04;;;;;;;12.32;4.47;;;1.90;99.90;;;;;;4178265;28;20047;-79
2021/01/14 10:09:05;;;;;;;9.20;5.15;;;1.90;99.90;;;;;;4161088;28;20566;-79
2021/01/14 10:11:06;;;;;;;7.68;4.35;;;1.90;99.90;;;;;;4180045;28;20107;-80
2021/01/14 10:13:15;;;;;;;11.27;3.97;;;1.90;99.90;;;;;;4162284;28;20037;-80
2021/01/14 10:15:16;;;;;;;9.65;4.30;;;1.90;99.90;;;;;;4170715;28;20033;-78
2021/01/14 10:17:17;;;;;;;11.85;4.05;;;2.00;99.90;;;;;;4161741;28;20032;-79
2021/01/14 10:19:19;;;;;;;15.20;5.22;;;2.00;99.90;;;;;;4165579;28;20497;-78
2021/01/14 10:21:28;;;;;;;11.98;4.50;;;2.00;99.90;;;;;;4180498;28;20074;-79
2021/01/14 10:23:29;;;;;;;12.80;4.82;;;2.10;99.90;;;;;;4162335;28;20034;-79
2021/01/14 10:25:30;;;;;;;11.48;4.60;;;2.00;99.90;;;;;;4179333;28;20135;-80
2021/01/14 10:27:30;;;;;;;14.25;5.93;;;2.10;99.90;;;;;;4152047;28;20041;-79
2021/01/14 10:29:38;;;;;;;9.10;4.80;;;2.10;99.90;;;;;;4179091;28;20033;-80
2021/01/14 10:31:44;;;;;;;10.45;5.03;;;2.10;99.90;;;;;;4155864;28;20045;-80
2021/01/14 10:33:55;;;;;;;9.25;4.65;;;2.20;99.90;;;;;;4174193;28;20056;-80
2021/01/14 10:35:55;;;;;;;9.60;4.30;;;2.20;99.90;;;;;;4150202;28;20469;-79
2021/01/14 10:38:12;;;;;;;8.25;4.13;;;2.20;99.90;;;;;;4179011;28;20032;-79
2021/01/14 10:40:17;;;;;;;6.63;4.18;;;2.20;99.90;;;;;;4167688;28;20033;-79
2021/01/14 10:42:49;;;;;;;5.53;3.78;;;2.30;99.90;;;;;;4159666;28;20036;-81
2021/01/14 10:44:53;;;;;;;14.25;4.97;;;2.40;99.90;;;;;;4155180;28;20030;-81
2021/01/14 10:46:54;;;;;;;8.70;4.53;;;2.60;99.90;;;;;;4173334;28;20037;-80
2021/01/14 10:48:54;;;;;;;9.40;4.20;;;2.70;99.90;;;;;;4160925;28;20532;-81